Time;durP1;ratioP1;P1;durP2;ratioP2;P2;SDS_P1;SDS_P2;PMS_P1;PMS_P2;Temp;Humidity;BMP_temperature;BMP_pressure;BME280_temperature;BME280_humidity;BME280_pressure;Samples;Min_cycle;Max_cycle;Signal;HPM_P1;HPM_P2
2022/03/19 00:01:34;;;;;;;13.60;5.17;;;7.70;99.90;;;;;;5114321;28;20452;-71
2022/03/19 00:04:01;;;;;;;21.43;4.67;;;7.70;99.90;;;;;;5114516;28;20894;-70
2022/03/19 00:06:29;;;;;;;13.20;5.47;;;7.70;99.90;;;;;;5114635;28;20460;-71
2022/03/19 00:08:56;;;;;;;7.27;4.17;;;7.60;99.90;;;;;;5114771;28;20524;-72
2022/03/19 00:11:24;;;;;;;13.40;5.10;;;7.60;99.90;;;;;;5114612;28;20505;-71
2022/03/19 00:13:50;;;;;;;10.03;4.50;;;7.60;99.90;;;;;;5114413;28;20512;-71
2022/03/19 00:16:17;;;;;;;11.07;4.70;;;7.50;99.90;;;;;;5114471;28;20830;-71
2022/03/19 00:18:45;;;;;;;13.67;5.27;;;7.50;99.90;;;;;;5114534;28;20820;-71
2022/03/19 00:21:12;;;;;;;15.40;4.97;;;7.50;99.90;;;;;;5117256;28;20525;-71
2022/03/19 00:23:39;;;;;;;12.30;4.70;;;7.50;99.90;;;;;;5118335;28;20459;-71
2022/03/19 00:26:06;;;;;;;13.83;5.17;;;7.40;99.90;;;;;;5118409;28;20469;-71
2022/03/19 00:28:32;;;;;;;19.77;5.57;;;7.40;99.90;;;;;;5118076;28;20455;-71
2022/03/19 00:30:59;;;;;;;12.87;4.60;;;7.30;99.90;;;;;;5118062;28;20459;-71
2022/03/19 00:33:26;;;;;;;10.90;4.50;;;7.30;99.90;;;;;;5117924;28;20452;-72
2022/03/19 00:35:54;;;;;;;9.43;4.80;;;7.30;99.90;;;;;;5118538;28;20452;-70
2022/03/19 00:38:21;;;;;;;11.50;4.53;;;7.30;99.90;;;;;;5118567;28;20457;-71
2022/03/19 00:40:49;;;;;;;10.80;4.63;;;7.20;99.90;;;;;;5118586;28;20786;-71
2022/03/19 00:43:16;;;;;;;8.33;4.60;;;7.20;99.90;;;;;;5118436;28;20463;-71
2022/03/19 00:45:43;;;;;;;11.30;5.10;;;7.20;99.90;;;;;;5118460;28;20979;-71
2022/03/19 00:48:12;;;;;;;10.00;5.60;;;7.20;99.90;;;;;;5119151;28;20456;-71
2022/03/19 00:50:43;;;;;;;12.03;4.70;;;7.20;99.90;;;;;;5118251;28;20487;-72
2022/03/19 00:53:11;;;;;;;11.70;4.50;;;7.10;99.90;;;;;;5118126;28;20930;-71
2022/03/19 00:55:37;;;;;;;13.73;4.53;;;7.10;99.90;;;;;;5117747;28;20480;-71
2022/03/19 00:58:04;;;;;;;13.80;4.90;;;7.10;99.90;;;;;;5118392;28;20459;-71
2022/03/19 01:00:33;;;;;;;19.23;4.83;;;7.10;99.90;;;;;;5117706;28;20448;-71
2022/03/19 01:03:00;;;;;;;12.50;4.50;;;7.00;99.90;;;;;;5117448;28;20452;-71
2022/03/19 01:05:27;;;;;;;23.23;5.97;;;7.00;99.90;;;;;;5117305;28;20907;-71
2022/03/19 01:07:56;;;;;;;15.47;5.30;;;7.00;99.90;;;;;;5117588;28;20460;-71
2022/03/19 01:10:25;;;;;;;16.40;5.30;;;7.00;99.90;;;;;;5117217;28;20926;-70
2022/03/19 01:12:53;;;;;;;14.00;5.73;;;6.90;99.90;;;;;;5117979;28;20452;-71
2022/03/19 01:15:20;;;;;;;10.03;5.03;;;6.90;99.90;;;;;;5117274;28;20480;-70
2022/03/19 01:17:48;;;;;;;11.10;4.87;;;6.90;99.90;;;;;;5117247;28;20452;-71
2022/03/19 01:20:16;;;;;;;10.57;5.23;;;6.80;99.90;;;;;;5117884;28;20779;-70
2022/03/19 01:22:45;;;;;;;15.00;5.67;;;6.80;99.90;;;;;;5117802;28;20456;-70
2022/03/19 01:25:13;;;;;;;13.17;4.73;;;6.80;99.90;;;;;;5117513;28;20449;-71
2022/03/19 01:27:42;;;;;;;15.23;5.63;;;6.70;99.90;;;;;;5117350;28;20794;-70
2022/03/19 01:30:11;;;;;;;9.70;4.73;;;6.70;99.90;;;;;;5117169;28;20460;-70
2022/03/19 01:32:39;;;;;;;14.17;4.63;;;6.70;99.90;;;;;;5115832;28;20484;-70
2022/03/19 01:35:07;;;;;;;11.27;5.47;;;6.60;99.90;;;;;;5116940;28;20492;-72
2022/03/19 01:37:33;;;;;;;22.27;6.40;;;6.60;99.90;;;;;;5116493;28;20938;-71
2022/03/19 01:40:00;;;;;;;18.13;5.83;;;6.60;99.90;;;;;;5116501;28;20467;-70
2022/03/19 01:42:28;;;;;;;19.37;6.00;;;6.50;99.90;;;;;;5116650;28;20767;-70
2022/03/19 01:44:57;;;;;;;19.83;5.80;;;6.50;99.90;;;;;;5116351;28;20452;-70
2022/03/19 01:47:26;;;;;;;15.60;5.17;;;6.50;99.90;;;;;;5116447;28;20452;-70
2022/03/19 01:49:53;;;;;;;16.00;5.40;;;6.40;99.90;;;;;;5116417;28;20457;-70
2022/03/19 01:52:19;;;;;;;9.93;5.00;;;6.40;99.90;;;;;;5116571;28;20907;-70
2022/03/19 01:54:48;;;;;;;12.63;5.27;;;6.40;99.90;;;;;;5116296;28;20473;-70
2022/03/19 01:57:18;;;;;;;13.97;5.70;;;6.40;99.90;;;;;;5116631;28;20460;-70
2022/03/19 01:59:45;;;;;;;10.77;5.13;;;6.30;99.90;;;;;;5116438;28;20525;-69
2022/03/19 02:02:15;;;;;;;15.90;6.40;;;6.40;99.90;;;;;;5115859;28;20926;-71
2022/03/19 02:04:44;;;;;;;9.90;4.37;;;6.30;99.90;;;;;;5116409;28;20806;-70
2022/03/19 02:07:13;;;;;;;15.37;6.40;;;6.30;99.90;;;;;;5116193;28;20460;-72
2022/03/19 02:09:40;;;;;;;19.30;5.97;;;6.20;99.90;;;;;;5116489;28;20463;-71
2022/03/19 02:12:08;;;;;;;13.57;5.30;;;6.20;99.90;;;;;;5116228;28;20464;-70
2022/03/19 02:14:36;;;;;;;14.13;5.67;;;6.20;99.90;;;;;;5116065;28;20472;-71
2022/03/19 02:17:04;;;;;;;16.33;5.63;;;6.20;99.90;;;;;;5116251;28;20468;-71
2022/03/19 02:19:33;;;;;;;14.87;6.50;;;6.10;99.90;;;;;;5115640;28;20452;-71
2022/03/19 02:21:59;;;;;;;9.13;5.43;;;6.10;99.90;;;;;;5115697;28;20453;-71
2022/03/19 02:27:12;;;;;;;13.77;6.50;;;6.10;99.90;;;;;;5115889;28;20462;-71
2022/03/19 02:29:38;;;;;;;14.13;5.67;;;6.00;99.90;;;;;;5115586;28;20468;-70
2022/03/19 02:32:07;;;;;;;16.07;6.00;;;6.00;99.90;;;;;;5115705;28;20464;-70
2022/03/19 02:34:34;;;;;;;18.70;6.23;;;6.00;99.90;;;;;;5115710;28;20487;-71
2022/03/19 02:37:01;;;;;;;10.87;4.93;;;6.00;99.90;;;;;;5115515;28;20483;-71
2022/03/19 02:39:31;;;;;;;12.77;4.60;;;6.00;99.90;;;;;;5115436;28;20456;-71
2022/03/19 02:42:00;;;;;;;14.07;5.70;;;5.90;99.90;;;;;;5115793;28;20844;-71
2022/03/19 02:44:27;;;;;;;14.80;6.50;;;5.90;99.90;;;;;;5115306;28;20781;-70
2022/03/19 02:46:55;;;;;;;17.40;5.63;;;5.80;99.90;;;;;;5115124;28;20914;-70
2022/03/19 02:49:23;;;;;;;11.00;5.83;;;5.80;99.90;;;;;;5115556;28;20463;-70
2022/03/19 02:51:53;;;;;;;15.17;6.17;;;5.80;99.90;;;;;;5115157;28;20456;-71
2022/03/19 02:54:21;;;;;;;8.87;5.03;;;5.70;99.90;;;;;;5115165;28;20488;-71
2022/03/19 02:56:51;;;;;;;12.87;5.47;;;5.70;99.90;;;;;;5115168;28;20467;-71
2022/03/19 02:59:20;;;;;;;11.83;5.60;;;5.70;99.90;;;;;;5115291;28;20456;-70
2022/03/19 03:01:48;;;;;;;16.53;6.53;;;5.70;99.90;;;;;;5115096;28;20460;-70
2022/03/19 03:04:15;;;;;;;9.40;5.27;;;5.70;99.90;;;;;;5115219;28;20845;-70
2022/03/19 03:06:44;;;;;;;14.37;5.83;;;5.60;99.90;;;;;;5114738;28;20483;-71
2022/03/19 03:09:11;;;;;;;21.93;5.70;;;5.60;99.90;;;;;;5115140;28;20473;-71
2022/03/19 03:11:39;;;;;;;7.00;5.33;;;5.60;99.90;;;;;;5114933;28;20460;-70
2022/03/19 03:14:09;;;;;;;16.80;6.23;;;5.60;99.90;;;;;;5115262;28;20525;-71
2022/03/19 03:16:36;;;;;;;18.07;5.60;;;5.50;99.90;;;;;;5114995;28;20460;-72
2022/03/19 03:19:05;;;;;;;16.30;6.17;;;5.50;99.90;;;;;;5115042;28;20463;-72
2022/03/19 03:21:32;;;;;;;15.87;5.30;;;5.50;99.90;;;;;;5114441;28;20497;-72
2022/03/19 03:23:59;;;;;;;13.87;6.50;;;5.50;99.90;;;;;;5114699;28;20456;-72
2022/03/19 03:26:26;;;;;;;21.03;5.93;;;5.40;99.90;;;;;;5115111;28;20452;-71
2022/03/19 03:28:53;;;;;;;12.13;6.53;;;5.40;99.90;;;;;;5114995;28;20525;-72
2022/03/19 03:31:21;;;;;;;12.77;6.33;;;5.40;99.90;;;;;;5115034;28;20445;-72
2022/03/19 03:33:48;;;;;;;16.10;6.77;;;5.30;99.90;;;;;;5115270;28;20452;-72
2022/03/19 03:36:14;;;;;;;17.90;5.90;;;5.30;99.90;;;;;;5114810;28;20970;-72
2022/03/19 03:38:41;;;;;;;18.17;6.10;;;5.20;99.90;;;;;;5114994;28;20525;-72
2022/03/19 03:41:08;;;;;;;12.17;5.60;;;5.20;99.90;;;;;;5114815;28;20786;-71
2022/03/19 03:43:35;;;;;;;11.97;5.57;;;5.20;99.90;;;;;;5114940;28;20456;-72
2022/03/19 03:46:02;;;;;;;17.10;6.10;;;5.20;99.90;;;;;;5114745;28;20548;-72
2022/03/19 03:48:30;;;;;;;15.57;5.77;;;5.10;99.90;;;;;;5115303;28;20517;-71
2022/03/19 03:50:59;;;;;;;16.50;6.13;;;5.10;99.90;;;;;;5115286;28;20456;-71
2022/03/19 03:53:28;;;;;;;13.83;5.47;;;5.10;99.90;;;;;;5120478;28;20488;-70
2022/03/19 03:55:55;;;;;;;15.57;5.80;;;5.00;99.90;;;;;;5121383;28;20490;-71
2022/03/19 03:58:23;;;;;;;11.10;5.67;;;5.00;99.90;;;;;;5123421;28;20456;-71
2022/03/19 04:00:51;;;;;;;14.00;6.30;;;4.90;99.90;;;;;;5122870;28;20456;-69
2022/03/19 04:03:18;;;;;;;15.77;5.57;;;4.90;99.90;;;;;;5123920;28;20509;-71
2022/03/19 04:05:46;;;;;;;11.47;5.70;;;4.90;99.90;;;;;;5123146;28;20458;-70
2022/03/19 04:08:13;;;;;;;10.10;5.53;;;4.80;99.90;;;;;;5122711;28;20448;-71
2022/03/19 04:10:40;;;;;;;20.20;5.93;;;4.80;99.90;;;;;;5118757;28;20464;-71
2022/03/19 04:13:06;;;;;;;15.93;6.40;;;4.80;99.90;;;;;;5118523;28;20453;-71
2022/03/19 04:15:33;;;;;;;12.63;6.30;;;4.80;99.90;;;;;;5118655;28;20491;-71
2022/03/19 04:18:01;;;;;;;14.40;7.00;;;4.80;99.90;;;;;;5121599;28;20785;-72
2022/03/19 04:20:28;;;;;;;16.23;5.17;;;4.80;99.90;;;;;;5122220;28;20527;-71
2022/03/19 04:22:57;;;;;;;12.67;5.87;;;4.70;99.90;;;;;;5118574;28;20488;-71
2022/03/19 04:25:26;;;;;;;12.03;5.83;;;4.70;99.90;;;;;;5118119;28;20459;-71
2022/03/19 04:27:54;;;;;;;14.83;4.97;;;4.60;99.90;;;;;;5118249;28;20476;-71
2022/03/19 04:30:22;;;;;;;9.87;5.80;;;4.60;99.90;;;;;;5117849;28;20467;-71
2022/03/19 04:32:54;;;;;;;8.23;4.87;;;4.60;99.90;;;;;;5117522;28;20492;-71
2022/03/19 04:38:10;;;;;;;10.90;4.73;;;4.50;99.90;;;;;;5118265;28;20575;-72
2022/03/19 04:40:38;;;;;;;10.40;4.77;;;4.40;99.90;;;;;;5117899;28;20448;-71
2022/03/19 04:43:05;;;;;;;13.47;5.60;;;4.40;99.90;;;;;;5117958;28;20525;-72
2022/03/19 04:45:32;;;;;;;14.00;5.47;;;4.40;99.90;;;;;;5118066;28;20456;-71
2022/03/19 04:47:59;;;;;;;15.23;5.00;;;4.40;99.90;;;;;;5117561;28;20456;-71
2022/03/19 04:50:25;;;;;;;9.27;5.47;;;4.30;99.90;;;;;;5117192;28;20514;-71
2022/03/19 04:52:54;;;;;;;11.97;4.40;;;4.30;99.90;;;;;;5117322;28;20480;-71
2022/03/19 04:55:22;;;;;;;12.10;5.20;;;4.40;99.90;;;;;;5118208;28;20505;-71
2022/03/19 04:57:49;;;;;;;18.47;7.90;;;4.40;99.90;;;;;;5117673;28;20456;-70
2022/03/19 05:00:17;;;;;;;16.47;11.10;;;4.30;99.90;;;;;;5117533;28;20946;-70
2022/03/19 05:02:45;;;;;;;36.17;16.40;;;4.30;99.90;;;;;;5117566;28;20460;-71
2022/03/19 05:05:13;;;;;;;14.07;6.10;;;4.30;99.90;;;;;;5117828;28;20491;-71
2022/03/19 05:07:40;;;;;;;11.27;5.70;;;4.20;99.90;;;;;;5118349;28;20453;-71
2022/03/19 05:12:55;;;;;;;11.63;5.60;;;4.20;99.90;;;;;;5124227;28;20427;-71
2022/03/19 05:15:22;;;;;;;9.40;5.07;;;4.20;99.90;;;;;;5121542;28;20491;-72
2022/03/19 05:17:49;;;;;;;12.43;5.33;;;4.10;99.90;;;;;;5119999;28;20452;-71
2022/03/19 05:20:19;;;;;;;10.27;5.40;;;4.10;99.90;;;;;;5118039;28;20452;-71
2022/03/19 05:22:45;;;;;;;12.20;5.10;;;4.10;99.90;;;;;;5117148;28;20452;-71
2022/03/19 05:25:12;;;;;;;11.23;6.10;;;4.10;99.90;;;;;;5116902;28;20457;-71
2022/03/19 05:27:39;;;;;;;10.03;5.73;;;4.00;99.90;;;;;;5117813;28;20517;-71
2022/03/19 05:30:08;;;;;;;11.93;5.00;;;4.00;99.90;;;;;;5117183;28;20544;-72
2022/03/19 05:32:35;;;;;;;15.47;6.93;;;4.00;99.90;;;;;;5116876;28;20536;-71
2022/03/19 05:35:04;;;;;;;7.60;4.73;;;4.00;99.90;;;;;;5116842;28;20744;-72
2022/03/19 05:37:31;;;;;;;18.43;7.63;;;4.00;99.90;;;;;;5116642;28;20488;-71
2022/03/19 05:39:59;;;;;;;14.50;7.50;;;4.00;99.90;;;;;;5116554;28;20448;-72
2022/03/19 05:42:27;;;;;;;8.80;4.80;;;4.00;99.90;;;;;;5116986;28;20492;-72
2022/03/19 05:44:54;;;;;;;15.17;5.27;;;4.00;99.90;;;;;;5116974;28;20807;-72
2022/03/19 05:47:22;;;;;;;13.23;5.33;;;4.00;99.90;;;;;;5116551;28;20467;-72
2022/03/19 05:49:49;;;;;;;16.87;5.03;;;4.00;99.90;;;;;;5116864;28;20460;-72
2022/03/19 05:52:16;;;;;;;14.00;5.03;;;4.00;99.90;;;;;;5116660;28;20488;-72
2022/03/19 05:54:43;;;;;;;10.60;4.70;;;4.00;99.90;;;;;;5116396;28;20981;-71
2022/03/19 05:57:09;;;;;;;14.60;5.43;;;4.00;99.90;;;;;;5116356;28;20487;-71
2022/03/19 05:59:36;;;;;;;9.70;4.80;;;4.00;99.90;;;;;;5116232;28;20456;-71
2022/03/19 06:02:05;;;;;;;10.73;4.47;;;4.00;99.90;;;;;;5116464;28;20537;-71
2022/03/19 06:04:34;;;;;;;9.07;4.80;;;4.00;99.90;;;;;;5116510;28;20472;-70
2022/03/19 06:07:00;;;;;;;10.57;4.20;;;4.10;99.90;;;;;;5116430;28;20476;-70
2022/03/19 06:09:27;;;;;;;15.17;5.63;;;4.10;99.90;;;;;;5116094;28;20460;-70
2022/03/19 06:11:54;;;;;;;13.70;5.03;;;4.10;99.90;;;;;;5115796;28;20452;-71
2022/03/19 06:14:20;;;;;;;14.80;5.17;;;4.10;99.90;;;;;;5115887;28;20915;-70
2022/03/19 06:16:49;;;;;;;8.13;3.90;;;4.10;99.90;;;;;;5117990;28;20476;-71
2022/03/19 06:19:16;;;;;;;9.87;4.40;;;4.20;99.90;;;;;;5118758;28;20495;-70
2022/03/19 06:21:44;;;;;;;7.67;4.20;;;4.20;99.90;;;;;;5118232;28;20453;-71
2022/03/19 06:24:10;;;;;;;9.30;4.60;;;4.20;99.90;;;;;;5118402;28;20471;-71
2022/03/19 06:26:38;;;;;;;11.70;4.23;;;4.20;99.90;;;;;;5118445;28;20521;-71
2022/03/19 06:29:05;;;;;;;10.13;3.80;;;4.20;99.90;;;;;;5118665;28;20468;-71
2022/03/19 06:31:32;;;;;;;14.27;4.30;;;4.20;99.90;;;;;;5118911;28;20461;-70
2022/03/19 06:33:58;;;;;;;9.03;4.33;;;4.30;99.90;;;;;;5118561;28;20456;-70
2022/03/19 06:39:12;;;;;;;13.20;4.40;;;4.40;99.90;;;;;;5118609;28;20502;-71
2022/03/19 06:41:38;;;;;;;11.37;4.00;;;4.40;99.90;;;;;;5118160;28;20968;-71
2022/03/19 06:44:05;;;;;;;10.63;3.97;;;4.40;99.90;;;;;;5118228;28;20466;-70
2022/03/19 06:46:35;;;;;;;8.80;3.80;;;4.50;99.90;;;;;;5118203;28;20449;-70
2022/03/19 06:49:02;;;;;;;7.60;3.80;;;4.50;99.90;;;;;;5118968;28;20460;-70
2022/03/19 06:51:29;;;;;;;12.27;4.10;;;4.50;99.90;;;;;;5119043;28;20460;-71
2022/03/19 06:53:55;;;;;;;13.30;5.03;;;4.50;99.90;;;;;;5118905;28;20487;-72
2022/03/19 06:56:24;;;;;;;12.63;3.87;;;4.60;99.90;;;;;;5119613;28;20839;-70
2022/03/19 06:58:50;;;;;;;10.60;3.77;;;4.70;99.90;;;;;;5119939;28;20467;-70
2022/03/19 07:01:17;;;;;;;9.83;3.80;;;4.80;99.90;;;;;;5119555;28;20467;-70
2022/03/19 07:03:45;;;;;;;7.50;3.70;;;4.80;99.90;;;;;;5119592;28;20478;-70
2022/03/19 07:06:12;;;;;;;10.13;3.17;;;4.90;99.90;;;;;;5118731;28;20456;-71
2022/03/19 07:08:39;;;;;;;8.67;2.80;;;4.90;99.90;;;;;;5119113;28;20726;-70
2022/03/19 07:11:06;;;;;;;13.63;4.43;;;5.00;99.90;;;;;;5118519;28;20452;-70
2022/03/19 07:13:35;;;;;;;9.83;3.53;;;5.00;99.90;;;;;;5118233;28;20463;-70
2022/03/19 07:16:02;;;;;;;15.20;4.70;;;5.10;99.90;;;;;;5119939;28;20480;-71
2022/03/19 07:18:28;;;;;;;45.63;23.70;;;5.20;99.90;;;;;;5118905;28;20453;-70
2022/03/19 07:20:55;;;;;;;7.53;3.93;;;5.20;99.90;;;;;;5118744;28;20452;-71
2022/03/19 07:23:22;;;;;;;9.70;4.10;;;5.30;99.90;;;;;;5119065;28;20776;-71
2022/03/19 07:25:49;;;;;;;7.07;3.20;;;5.30;99.90;;;;;;5117193;28;20456;-72
2022/03/19 07:28:18;;;;;;;7.63;3.43;;;5.40;99.90;;;;;;5115639;28;20456;-71
2022/03/19 07:30:47;;;;;;;7.37;2.73;;;5.50;99.90;;;;;;5114275;28;20957;-72
2022/03/19 07:33:14;;;;;;;8.40;4.40;;;5.60;99.90;;;;;;5115225;28;20521;-70
2022/03/19 07:35:42;;;;;;;13.40;3.60;;;5.60;99.90;;;;;;5115551;28;20468;-70
2022/03/19 07:38:10;;;;;;;6.40;4.13;;;5.70;99.90;;;;;;5115353;28;20457;-71
2022/03/19 07:43:22;;;;;;;4.83;2.70;;;5.80;99.90;;;;;;5115142;28;20455;-72
2022/03/19 07:45:51;;;;;;;8.53;2.80;;;5.90;99.90;;;;;;5114774;28;20452;-72
2022/03/19 07:48:18;;;;;;;9.43;2.53;;;6.00;99.90;;;;;;5114728;28;20556;-72
2022/03/19 07:50:45;;;;;;;8.27;2.30;;;6.10;99.90;;;;;;5114787;28;20537;-72
2022/03/19 07:53:18;;;;;;;4.10;3.70;;;6.20;99.90;;;;;;5114457;28;20484;-72
2022/03/19 07:55:56;;;;;;;7.37;2.80;;;6.20;99.90;;;;;;5115413;28;20448;-72
2022/03/19 07:58:31;;;;;;;8.43;3.00;;;6.30;99.90;;;;;;5116004;28;20520;-72
2022/03/19 08:01:05;;;;;;;9.73;3.20;;;6.40;99.90;;;;;;5118902;28;20447;-73
2022/03/19 08:03:32;;;;;;;4.80;3.40;;;6.50;99.90;;;;;;5117915;28;20524;-73
2022/03/19 08:05:59;;;;;;;6.17;2.63;;;6.60;99.90;;;;;;5116613;28;20517;-71
2022/03/19 08:08:26;;;;;;;6.27;2.90;;;6.70;99.90;;;;;;5114826;28;20492;-72
2022/03/19 08:10:53;;;;;;;7.50;2.70;;;6.80;99.90;;;;;;5115970;28;20456;-72
2022/03/19 08:13:19;;;;;;;11.17;2.93;;;6.90;99.90;;;;;;5115624;28;20452;-72
2022/03/19 08:15:46;;;;;;;10.50;2.53;;;7.00;99.90;;;;;;5114635;28;20457;-71
2022/03/19 08:18:16;;;;;;;11.17;3.50;;;7.10;99.90;;;;;;5114526;28;20796;-72
2022/03/19 08:20:44;;;;;;;9.33;2.80;;;7.20;99.90;;;;;;5115023;28;20460;-72
2022/03/19 08:23:12;;;;;;;5.13;2.43;;;7.30;99.90;;;;;;5114397;28;20496;-72
2022/03/19 08:25:39;;;;;;;11.30;4.00;;;7.30;99.90;;;;;;5114444;28;20456;-72
2022/03/19 08:28:06;;;;;;;7.90;2.33;;;7.40;99.90;;;;;;5114259;28;20476;-71
2022/03/19 08:30:33;;;;;;;5.67;2.10;;;7.40;99.90;;;;;;5114390;28;20460;-71
2022/03/19 08:33:00;;;;;;;10.63;3.10;;;7.40;99.90;;;;;;5113988;28;20786;-71
2022/03/19 08:35:31;;;;;;;9.00;3.43;;;7.40;99.90;;;;;;5114280;28;20484;-73
2022/03/19 08:40:38;;;;;;;13.60;4.90;;;7.50;99.90;;;;;;5113435;28;20448;-72
2022/03/19 08:43:05;;;;;;;8.10;2.30;;;7.40;99.90;;;;;;5118107;28;20517;-72
2022/03/19 08:45:32;;;;;;;8.23;2.73;;;7.40;99.90;;;;;;5118131;28;20463;-72
2022/03/19 08:47:59;;;;;;;6.20;2.87;;;7.40;99.90;;;;;;5117477;28;20909;-72
2022/03/19 08:50:28;;;;;;;13.00;3.47;;;7.50;99.90;;;;;;5121738;28;20455;-72
2022/03/19 08:53:04;;;;;;;11.73;3.53;;;7.50;99.90;;;;;;5121915;28;20877;-72
2022/03/19 08:55:31;;;;;;;11.23;2.53;;;7.60;99.90;;;;;;5119667;28;20425;-72
2022/03/19 08:57:57;;;;;;;6.10;2.00;;;7.60;99.90;;;;;;5117709;28;20571;-72
2022/03/19 09:00:24;;;;;;;10.57;2.80;;;7.70;99.90;;;;;;5117494;28;20461;-72
2022/03/19 09:02:51;;;;;;;9.83;3.53;;;7.80;99.90;;;;;;5117493;28;20452;-72
2022/03/19 09:05:18;;;;;;;3.73;2.30;;;7.90;99.90;;;;;;5117436;28;20464;-72
2022/03/19 09:07:46;;;;;;;9.83;2.80;;;7.90;99.90;;;;;;5117959;28;20458;-72
2022/03/19 09:10:13;;;;;;;5.70;2.10;;;8.00;99.90;;;;;;5117943;28;20456;-71
2022/03/19 09:12:40;;;;;;;11.97;2.47;;;8.10;99.90;;;;;;5117386;28;20459;-72
2022/03/19 09:15:09;;;;;;;7.07;2.47;;;8.20;99.90;;;;;;5117355;28;20456;-72
2022/03/19 09:17:36;;;;;;;13.57;2.57;;;8.20;99.90;;;;;;5117047;28;20480;-72
2022/03/19 09:20:03;;;;;;;8.23;3.07;;;8.20;99.90;;;;;;5117253;28;20944;-72
2022/03/19 09:22:31;;;;;;;12.90;3.00;;;8.30;99.90;;;;;;5117189;28;20475;-72
2022/03/19 09:24:59;;;;;;;6.07;2.80;;;8.40;99.90;;;;;;5117202;28;20460;-72
2022/03/19 09:27:25;;;;;;;10.70;2.40;;;8.40;99.90;;;;;;5116525;28;20452;-72
2022/03/19 09:29:52;;;;;;;10.93;2.00;;;8.50;99.90;;;;;;5116802;28;20456;-72
2022/03/19 09:32:20;;;;;;;9.93;2.57;;;8.60;99.90;;;;;;5116882;28;20517;-72
2022/03/19 09:34:49;;;;;;;7.50;2.80;;;8.70;99.90;;;;;;5116559;28;20456;-71
2022/03/19 09:37:16;;;;;;;6.73;2.70;;;8.90;99.90;;;;;;5116590;28;20483;-73
2022/03/19 09:39:42;;;;;;;6.40;2.60;;;9.00;99.90;;;;;;5117692;28;20512;-72
2022/03/19 09:42:13;;;;;;;3.70;2.30;;;9.10;99.90;;;;;;5117962;28;20505;-71
2022/03/19 09:44:43;;;;;;;6.90;3.20;;;9.20;99.90;;;;;;5118941;28;20441;-71
2022/03/19 09:47:09;;;;;;;10.30;3.10;;;9.30;99.90;;;;;;5119440;28;20670;-72
2022/03/19 09:49:36;;;;;;;6.40;2.47;;;9.30;99.90;;;;;;5118257;28;20452;-72
2022/03/19 09:52:04;;;;;;;13.27;3.83;;;9.40;99.90;;;;;;5116260;28;20456;-72
2022/03/19 09:54:32;;;;;;;8.50;2.80;;;9.50;99.90;;;;;;5116024;28;20440;-71
2022/03/19 09:56:59;;;;;;;8.87;5.03;;;9.60;99.90;;;;;;5116273;28;20541;-72
2022/03/19 09:59:28;;;;;;;8.10;2.93;;;9.60;99.90;;;;;;5116804;28;20480;-71
2022/03/19 10:01:54;;;;;;;6.47;2.43;;;9.70;99.90;;;;;;5115758;28;20521;-73
2022/03/19 10:04:21;;;;;;;8.60;3.00;;;9.80;99.90;;;;;;5116463;28;20456;-73
2022/03/19 10:09:40;;;;;;;12.30;2.90;;;10.00;99.90;;;;;;5116345;28;20424;-72
2022/03/19 10:12:12;;;;;;;4.00;2.80;;;10.00;99.90;;;;;;5117089;28;20432;-72
2022/03/19 10:14:40;;;;;;;6.00;2.53;;;10.00;99.90;;;;;;5115916;28;20441;-71
2022/03/19 10:17:08;;;;;;;7.07;3.00;;;10.00;99.90;;;;;;5116138;28;20484;-72
2022/03/19 10:19:49;;;;;;;5.63;2.80;;;10.10;99.90;;;;;;5115779;28;20927;-73
2022/03/19 10:22:23;;;;;;;8.47;3.33;;;10.20;99.90;;;;;;5116246;28;20440;-73
2022/03/19 10:24:58;;;;;;;15.60;3.13;;;10.30;99.90;;;;;;5116232;28;20550;-72
2022/03/19 10:27:25;;;;;;;6.50;3.20;;;10.40;99.90;;;;;;5116163;28;20432;-72
2022/03/19 10:30:05;;;;;;;7.33;2.70;;;10.40;99.90;;;;;;5115922;28;20460;-71
2022/03/19 10:32:32;;;;;;;5.77;2.50;;;10.50;99.90;;;;;;5116146;28;20440;-73
2022/03/19 10:34:59;;;;;;;5.67;2.63;;;10.60;99.90;;;;;;5116149;28;20468;-73
2022/03/19 10:37:37;;;;;;;4.67;2.53;;;10.60;99.90;;;;;;5119655;28;20472;-74
2022/03/19 10:40:05;;;;;;;9.23;3.70;;;10.60;99.90;;;;;;5116655;28;20550;-72
2022/03/19 10:42:40;;;;;;;5.87;2.70;;;10.70;99.90;;;;;;5115718;28;20467;-72
2022/03/19 10:45:11;;;;;;;10.23;2.90;;;10.80;99.90;;;;;;5115309;28;20455;-72
2022/03/19 10:47:42;;;;;;;11.63;3.70;;;10.90;99.90;;;;;;5115076;28;20822;-73
2022/03/19 10:50:11;;;;;;;4.93;3.30;;;10.90;99.90;;;;;;5114864;28;20456;-72
2022/03/19 10:52:39;;;;;;;6.07;3.30;;;10.90;99.90;;;;;;5114919;28;20500;-72
2022/03/19 10:55:07;;;;;;;6.67;3.27;;;11.10;99.90;;;;;;5114949;28;20785;-72
2022/03/19 10:57:35;;;;;;;6.70;3.00;;;11.30;99.90;;;;;;5114918;28;20519;-72
2022/03/19 11:00:04;;;;;;;20.63;8.83;;;11.40;99.90;;;;;;5114998;28;20490;-72
2022/03/19 11:02:32;;;;;;;4.77;2.87;;;11.60;99.90;;;;;;5114994;28;20597;-72
2022/03/19 11:05:00;;;;;;;4.70;2.90;;;11.80;99.90;;;;;;5114749;28;20530;-72
2022/03/19 11:07:31;;;;;;;6.73;3.70;;;12.10;99.90;;;;;;5115253;28;20560;-72
2022/03/19 11:09:59;;;;;;;6.83;3.00;;;12.30;99.90;;;;;;5116543;28;20509;-73
2022/03/19 11:12:29;;;;;;;8.13;2.77;;;12.40;99.90;;;;;;5118933;28;20535;-73
2022/03/19 11:14:58;;;;;;;5.33;2.47;;;12.50;99.90;;;;;;5116332;28;20456;-72
2022/03/19 11:17:30;;;;;;;3.60;2.57;;;12.50;99.90;;;;;;5115603;28;20567;-72
2022/03/19 11:20:00;;;;;;;7.33;3.10;;;12.50;99.90;;;;;;5114972;28;20472;-71
2022/03/19 11:22:28;;;;;;;4.80;2.40;;;12.40;99.90;;;;;;5115148;28;20437;-72
2022/03/19 11:25:02;;;;;;;4.50;2.90;;;12.40;99.90;;;;;;5114390;28;20515;-72
2022/03/19 11:27:32;;;;;;;4.90;2.90;;;12.60;99.90;;;;;;5115592;28;20503;-71
2022/03/19 11:29:59;;;;;;;5.27;2.50;;;12.80;99.90;;;;;;5114960;28;20460;-73
2022/03/19 11:32:26;;;;;;;5.00;2.60;;;13.10;99.90;;;;;;5114671;28;20488;-72
2022/03/19 11:34:59;;;;;;;3.80;2.50;;;13.40;99.90;;;;;;5114566;28;20560;-72
2022/03/19 11:38:01;;;;;;;10.10;3.60;;;13.60;99.90;;;;;;5114609;28;20953;-72
2022/03/19 11:40:29;;;;;;;7.40;2.87;;;13.80;99.90;;;;;;5115088;28;20513;-72
2022/03/19 11:42:57;;;;;;;5.43;2.90;;;14.10;99.90;;;;;;5115043;28;20463;-72
2022/03/19 11:45:25;;;;;;;3.90;2.33;;;14.30;99.90;;;;;;5114549;28;20492;-75
2022/03/19 11:47:52;;;;;;;8.20;2.90;;;14.20;99.90;;;;;;5115001;28;20452;-72
2022/03/19 11:50:20;;;;;;;4.47;2.90;;;14.10;99.90;;;;;;5115106;28;20453;-73
2022/03/19 11:53:06;;;;;;;9.53;3.47;;;14.10;99.90;;;;;;5114896;28;20477;-73
2022/03/19 11:55:40;;;;;;;3.77;2.53;;;14.20;99.90;;;;;;5115049;28;21053;-72
2022/03/19 11:58:09;;;;;;;9.20;3.23;;;14.40;99.90;;;;;;5116325;28;20480;-72
2022/03/19 12:00:39;;;;;;;5.73;4.10;;;14.80;99.90;;;;;;5116261;28;20457;-72
2022/03/19 12:03:09;;;;;;;6.43;3.40;;;15.60;99.90;;;;;;5116191;28;20459;-72
2022/03/19 12:05:37;;;;;;;8.07;4.63;;;16.70;99.90;;;;;;5115457;28;20525;-72
2022/03/19 12:08:12;;;;;;;14.70;6.17;;;17.60;96.60;;;;;;5115762;28;20479;-72
2022/03/19 12:10:57;;;;;;;5.37;4.50;;;18.60;93.10;;;;;;5114886;28;20440;-72
2022/03/19 12:13:39;;;;;;;12.17;4.70;;;19.30;87.20;;;;;;5114159;28;20468;-71
2022/03/19 12:16:08;;;;;;;11.97;5.77;;;20.00;1.00;;;;;;5114520;28;20919;-72
2022/03/19 12:18:44;;;;;;;7.30;4.70;;;19.90;1.00;;;;;;5118047;28;20476;-72
2022/03/19 12:21:21;;;;;;;9.80;5.67;;;19.30;1.00;;;;;;5118102;28;20472;-73
2022/03/19 12:24:23;;;;;;;9.83;6.17;;;18.80;1.00;;;;;;5117993;28;20439;-72
2022/03/19 12:26:51;;;;;;;7.07;5.40;;;18.10;1.00;;;;;;5118138;28;20779;-72
2022/03/19 12:29:19;;;;;;;7.93;5.53;;;18.00;1.00;;;;;;5117969;28;20444;-72
2022/03/19 12:31:48;;;;;;;10.57;5.83;;;17.70;1.00;;;;;;5118048;28;20453;-72
2022/03/19 12:34:16;;;;;;;7.63;5.40;;;17.80;1.00;;;;;;5117819;28;20759;-73
2022/03/19 12:36:43;;;;;;;9.00;5.87;;;18.30;1.00;;;;;;5118172;28;20527;-73
2022/03/19 12:39:10;;;;;;;6.10;5.10;;;18.70;1.00;;;;;;5117989;28;20571;-73
2022/03/19 12:41:39;;;;;;;7.40;5.70;;;19.40;1.00;;;;;;5117660;28;20467;-72
2022/03/19 12:44:10;;;;;;;8.30;5.20;;;20.10;1.00;;;;;;5117601;28;20471;-72
2022/03/19 12:46:38;;;;;;;12.60;6.43;;;20.20;1.00;;;;;;5117584;28;20770;-72
2022/03/19 12:49:07;;;;;;;11.43;6.77;;;20.10;1.00;;;;;;5117646;28;20459;-72
2022/03/19 12:51:36;;;;;;;8.33;6.80;;;20.10;1.00;;;;;;5117656;28;20866;-72
2022/03/19 12:54:17;;;;;;;11.60;7.33;;;20.10;1.00;;;;;;5116890;28;20476;-73
2022/03/19 12:56:45;;;;;;;11.33;7.53;;;20.10;1.00;;;;;;5117178;28;20558;-72
2022/03/19 12:59:18;;;;;;;12.10;8.17;;;20.00;1.00;;;;;;5116958;28;20985;-72
2022/03/19 13:01:45;;;;;;;10.90;7.70;;;19.70;1.00;;;;;;5117404;28;20514;-71
2022/03/19 13:04:19;;;;;;;10.90;8.73;;;19.70;1.00;;;;;;5117741;28;20751;-73
2022/03/19 13:06:46;;;;;;;15.00;10.03;;;19.90;1.00;;;;;;5118593;28;20435;-73
2022/03/19 13:09:13;;;;;;;12.70;8.43;;;20.10;1.00;;;;;;5117834;28;20448;-72
2022/03/19 13:11:47;;;;;;;13.67;10.60;;;20.40;1.00;;;;;;5117517;28;20524;-72
2022/03/19 13:14:15;;;;;;;14.63;11.87;;;20.40;1.00;;;;;;5118091;28;20452;-73